Time;durP1;ratioP1;P1;durP2;ratioP2;P2;SDS_P1;SDS_P2;PMS_P1;PMS_P2;Temp;Humidity;BMP_temperature;BMP_pressure;BME280_temperature;BME280_humidity;BME280_pressure;Samples;Min_cycle;Max_cycle;Signal;HPM_P1;HPM_P2
2023/05/13 00:02:07;;;;;;;5.57;3.38;;;;;;;10.17;57.51;95377.09;5046114;28;20052;-74
2023/05/13 00:04:32;;;;;;;8.05;3.00;;;;;;;10.27;57.57;95376.91;5045243;28;20061;-73
2023/05/13 00:06:58;;;;;;;5.30;3.38;;;;;;;10.34;57.44;95382.25;5045756;28;20060;-74
2023/05/13 00:09:23;;;;;;;4.63;3.38;;;;;;;10.35;57.49;95386.56;5044944;28;20403;-73
2023/05/13 00:11:49;;;;;;;4.25;3.20;;;;;;;10.41;57.57;95391.56;5043768;28;20461;-74
2023/05/13 00:14:14;;;;;;;6.07;3.30;;;;;;;10.43;57.59;95376.19;5046306;28;20028;-73
2023/05/13 00:16:40;;;;;;;3.83;2.90;;;;;;;10.45;56.50;95384.78;5046036;28;20029;-73
2023/05/13 00:19:05;;;;;;;4.75;2.80;;;;;;;10.45;56.16;95384.00;5045007;28;20086;-72
2023/05/13 00:21:31;;;;;;;4.00;3.10;;;;;;;10.49;56.22;95388.22;5043020;28;20126;-73
2023/05/13 00:23:56;;;;;;;5.88;3.28;;;;;;;10.54;55.75;95387.72;5044218;28;20024;-73
2023/05/13 00:26:22;;;;;;;3.45;3.13;;;;;;;10.60;55.70;95388.75;5045425;28;20042;-73
2023/05/13 00:28:47;;;;;;;4.97;3.05;;;;;;;10.62;55.63;95391.09;5043854;28;20063;-73
2023/05/13 00:31:13;;;;;;;4.43;3.25;;;;;;;10.55;55.24;95394.00;5044868;28;20431;-73
2023/05/13 00:33:38;;;;;;;4.90;2.92;;;;;;;10.61;54.61;95400.56;5044511;28;20032;-73
2023/05/13 00:36:05;;;;;;;6.28;3.40;;;;;;;10.60;54.62;95390.75;5044530;28;20385;-73
2023/05/13 00:38:32;;;;;;;5.18;3.08;;;;;;;10.63;54.87;95378.91;5044582;28;20029;-73
2023/05/13 00:40:57;;;;;;;4.93;2.85;;;;;;;10.67;55.24;95382.34;5045500;28;20029;-74
2023/05/13 00:43:22;;;;;;;3.72;2.33;;;;;;;10.57;53.29;95392.38;5043069;28;20154;-72
2023/05/13 00:45:48;;;;;;;4.57;2.40;;;;;;;10.22;53.18;95382.09;5045090;28;20124;-73
2023/05/13 00:48:13;;;;;;;3.35;2.30;;;;;;;10.15;53.25;95383.03;5045161;28;20028;-72
2023/05/13 00:50:41;;;;;;;4.32;2.28;;;;;;;10.01;53.22;95375.81;5043283;28;20060;-72
2023/05/13 00:53:06;;;;;;;4.35;2.40;;;;;;;10.16;53.74;95373.59;5045935;28;20025;-72
2023/05/13 00:55:32;;;;;;;3.03;2.63;;;;;;;9.89;53.42;95370.19;5026285;28;20051;-73
2023/05/13 00:57:57;;;;;;;4.40;2.00;;;;;;;9.70;52.92;95374.47;5045381;28;20535;-73
2023/05/13 01:00:23;;;;;;;3.25;2.50;;;;;;;9.68;53.14;95369.38;5042958;28;20025;-72
2023/05/13 01:03:16;;;;;;;3.42;2.30;;;;;;;9.58;52.08;95360.16;5044792;28;20429;-73
2023/05/13 01:06:07;;;;;;;2.73;1.90;;;;;;;9.47;52.79;95361.56;5043789;28;20569;-73
2023/05/13 01:08:42;;;;;;;2.63;1.90;;;;;;;9.65;52.57;95373.00;5043930;28;20387;-74
2023/05/13 01:11:23;;;;;;;3.38;2.20;;;;;;;9.82;52.97;95387.59;5046061;28;20423;-72
2023/05/13 01:13:51;;;;;;;3.25;2.28;;;;;;;9.80;52.35;95382.50;5042784;28;20479;-73
2023/05/13 01:16:21;;;;;;;2.55;1.80;;;;;;;9.76;51.96;95376.31;5043470;28;20108;-73
2023/05/13 01:19:00;;;;;;;2.85;1.95;;;;;;;9.96;51.90;95383.78;5043718;28;20045;-72
2023/05/13 01:21:26;;;;;;;2.90;2.15;;;;;;;10.05;52.70;95393.03;5042565;28;20052;-73
2023/05/13 01:23:52;;;;;;;2.75;1.90;;;;;;;9.89;51.72;95395.69;5043331;28;20021;-74
2023/05/13 01:26:18;;;;;;;3.13;1.92;;;;;;;10.01;52.34;95388.78;5043647;28;20074;-73
2023/05/13 01:28:44;;;;;;;4.70;2.40;;;;;;;10.12;52.67;95394.84;5045168;28;20107;-73
2023/05/13 01:31:09;;;;;;;3.75;2.30;;;;;;;10.22;53.40;95401.34;5042887;28;20040;-75
2023/05/13 01:33:36;;;;;;;5.10;2.67;;;;;;;10.23;53.31;95403.69;5044538;28;20433;-73
2023/05/13 01:36:02;;;;;;;5.10;2.78;;;;;;;10.26;54.84;95413.81;5045321;28;20055;-73
2023/05/13 01:38:28;;;;;;;4.75;3.03;;;;;;;10.30;56.58;95406.28;5048375;28;20422;-73
2023/05/13 01:40:55;;;;;;;4.55;3.47;;;;;;;10.28;57.76;95397.69;5047662;28;20031;-74
2023/05/13 01:43:20;;;;;;;5.20;3.83;;;;;;;10.33;58.18;95401.94;5048109;28;20491;-73
2023/05/13 01:45:46;;;;;;;5.63;3.78;;;;;;;10.34;59.05;95414.47;5047577;28;20036;-73
2023/05/13 01:48:11;;;;;;;6.50;4.05;;;;;;;9.96;61.25;95411.25;5047555;28;20108;-73
2023/05/13 01:50:36;;;;;;;5.43;4.05;;;;;;;9.92;61.45;95408.59;5048744;28;20413;-73
2023/05/13 01:53:02;;;;;;;5.75;4.28;;;;;;;9.62;61.97;95412.25;5046881;28;20060;-74
2023/05/13 01:55:27;;;;;;;6.18;4.97;;;;;;;9.27;62.90;95417.13;5048055;28;20029;-73
2023/05/13 01:57:53;;;;;;;6.72;5.28;;;;;;;9.15;63.63;95406.75;5047420;28;20029;-74
2023/05/13 02:00:18;;;;;;;8.32;5.53;;;;;;;9.23;63.23;95404.66;5046154;28;20350;-73
2023/05/13 02:02:45;;;;;;;9.73;5.28;;;;;;;9.24;63.24;95401.53;5047024;28;20106;-72
2023/05/13 02:05:10;;;;;;;8.75;6.13;;;;;;;9.11;63.88;95411.50;5047991;28;20024;-72
2023/05/13 02:07:36;;;;;;;10.13;5.95;;;;;;;9.06;64.55;95417.50;5050761;28;20040;-74
2023/05/13 02:10:01;;;;;;;7.07;5.47;;;;;;;9.28;63.63;95407.72;5047543;28;20120;-72
2023/05/13 02:12:26;;;;;;;8.93;5.95;;;;;;;9.41;63.41;95407.91;5048180;28;20066;-74
2023/05/13 02:14:53;;;;;;;6.97;5.53;;;;;;;9.31;63.84;95408.84;5048152;28;20033;-73
2023/05/13 02:17:18;;;;;;;6.40;5.63;;;;;;;9.25;63.83;95399.56;5045603;28;20021;-72
2023/05/13 02:19:44;;;;;;;7.65;5.63;;;;;;;9.31;63.65;95412.38;5047344;28;20036;-74
2023/05/13 02:22:09;;;;;;;6.38;5.55;;;;;;;9.35;63.83;95412.34;5045130;28;20060;-73
2023/05/13 02:24:38;;;;;;;6.68;5.68;;;;;;;9.44;63.43;95415.28;5048112;28;20036;-73
2023/05/13 02:27:04;;;;;;;9.05;5.70;;;;;;;9.59;63.27;95418.59;5046736;28;20057;-73
2023/05/13 02:29:30;;;;;;;7.18;5.50;;;;;;;9.68;62.73;95426.25;5048077;28;20068;-73
2023/05/13 02:31:55;;;;;;;9.30;5.80;;;;;;;9.66;62.25;95423.94;5046060;28;20112;-73
2023/05/13 02:34:20;;;;;;;6.97;5.20;;;;;;;9.73;62.19;95426.56;5029373;28;20033;-73
2023/05/13 02:36:47;;;;;;;6.47;5.20;;;;;;;9.70;61.37;95418.41;5048435;28;20047;-74
2023/05/13 02:39:13;;;;;;;7.63;5.20;;;;;;;9.84;61.30;95420.88;5046771;28;20025;-74
2023/05/13 02:41:38;;;;;;;6.82;5.18;;;;;;;9.94;61.49;95433.66;5046827;28;20025;-73
2023/05/13 02:44:04;;;;;;;6.35;5.10;;;;;;;10.02;61.93;95434.28;5045066;28;20032;-74
2023/05/13 02:46:30;;;;;;;6.82;5.65;;;;;;;10.04;62.25;95435.44;5045745;28;20029;-73
2023/05/13 02:48:55;;;;;;;6.13;5.53;;;;;;;10.08;61.85;95441.59;5044786;28;20032;-74
2023/05/13 02:51:20;;;;;;;6.45;4.97;;;;;;;10.11;61.39;95437.25;5047091;28;20036;-73
2023/05/13 02:53:46;;;;;;;6.97;4.85;;;;;;;10.19;60.91;95438.66;5047582;28;20135;-72
2023/05/13 02:56:15;;;;;;;8.13;5.50;;;;;;;10.22;61.19;95446.06;5045085;28;20108;-74
2023/05/13 02:58:40;;;;;;;5.50;4.93;;;;;;;10.25;61.07;95441.72;5048216;28;20025;-74
2023/05/13 03:01:06;;;;;;;7.57;5.30;;;;;;;10.30;61.24;95454.97;5048012;28;20025;-73
2023/05/13 03:03:31;;;;;;;7.07;6.00;;;;;;;10.33;61.00;95456.88;5046040;28;20515;-72
2023/05/13 03:05:57;;;;;;;8.15;5.15;;;;;;;10.35;60.71;95449.75;5046368;28;20037;-73
2023/05/13 03:08:22;;;;;;;8.32;6.38;;;;;;;10.39;60.24;95448.94;5045904;28;20017;-73
2023/05/13 03:10:48;;;;;;;7.45;6.00;;;;;;;10.41;60.01;95446.53;5045451;28;20098;-74
2023/05/13 03:13:13;;;;;;;8.48;6.03;;;;;;;10.45;59.68;95464.50;5044950;28;20044;-73
2023/05/13 03:15:38;;;;;;;9.25;5.88;;;;;;;10.49;59.83;95465.19;5046443;28;20025;-73
2023/05/13 03:18:04;;;;;;;7.38;5.75;;;;;;;10.50;60.19;95455.75;5046267;28;20059;-73
2023/05/13 03:20:30;;;;;;;7.60;6.28;;;;;;;10.52;60.60;95452.59;5045972;28;20170;-73
2023/05/13 03:22:55;;;;;;;8.63;5.93;;;;;;;10.56;60.94;95447.78;5027943;28;20059;-73
2023/05/13 03:25:21;;;;;;;8.38;6.35;;;;;;;10.58;61.07;95448.91;5046487;28;20064;-73
2023/05/13 03:27:46;;;;;;;7.88;6.60;;;;;;;10.59;61.03;95449.69;5046330;28;20049;-73
2023/05/13 03:30:12;;;;;;;6.95;5.93;;;;;;;10.62;61.32;95455.13;5045404;28;20435;-73
2023/05/13 03:32:38;;;;;;;7.57;6.30;;;;;;;10.65;61.26;95458.97;5046871;28;20047;-73
2023/05/13 03:35:04;;;;;;;9.07;6.50;;;;;;;10.64;60.95;95458.22;5046019;28;20495;-74
2023/05/13 03:37:29;;;;;;;7.85;6.07;;;;;;;10.66;61.42;95460.53;5028970;28;20053;-74
2023/05/13 03:39:54;;;;;;;9.40;6.50;;;;;;;10.67;61.33;95467.59;5044432;28;20411;-74
2023/05/13 03:42:22;;;;;;;6.93;6.18;;;;;;;10.72;61.17;95471.81;5028890;28;20460;-73
2023/05/13 03:44:47;;;;;;;10.70;7.53;;;;;;;10.72;60.93;95463.56;5044469;28;20045;-75
2023/05/13 03:47:12;;;;;;;6.78;5.80;;;;;;;10.76;60.41;95475.25;5046853;28;20130;-73
2023/05/13 03:49:38;;;;;;;8.02;6.88;;;;;;;10.78;60.20;95475.59;5046153;28;20108;-74
2023/05/13 03:52:06;;;;;;;9.75;6.70;;;;;;;10.81;59.96;95480.25;5046011;28;20045;-74
2023/05/13 03:54:32;;;;;;;6.97;5.80;;;;;;;10.80;58.27;95476.75;5045362;28;20064;-74
2023/05/13 03:56:57;;;;;;;8.32;5.70;;;;;;;10.80;57.38;95485.00;5046449;28;20458;-74
2023/05/13 03:59:23;;;;;;;6.05;4.93;;;;;;;10.84;56.39;95499.44;5045007;28;20037;-73
2023/05/13 04:01:48;;;;;;;8.73;5.18;;;;;;;10.87;55.99;95500.56;5045552;28;20103;-73
2023/05/13 04:04:13;;;;;;;7.95;4.70;;;;;;;10.88;56.00;95505.63;5044939;28;20180;-73
2023/05/13 04:06:39;;;;;;;6.57;4.65;;;;;;;10.90;55.70;95497.75;5043874;28;20108;-74
2023/05/13 04:09:04;;;;;;;8.65;5.32;;;;;;;10.90;55.80;95506.00;5046136;28;20032;-73
2023/05/13 04:11:31;;;;;;;7.47;5.43;;;;;;;10.91;56.19;95506.78;5044258;28;20455;-74
2023/05/13 04:13:56;;;;;;;8.50;5.45;;;;;;;10.94;55.72;95502.38;5044070;28;20059;-74
2023/05/13 04:16:22;;;;;;;7.55;6.07;;;;;;;10.98;55.24;95503.09;5044990;28;20411;-74
2023/05/13 04:18:47;;;;;;;5.90;4.63;;;;;;;11.01;55.11;95508.53;5043683;28;20091;-74
2023/05/13 04:21:13;;;;;;;7.43;4.72;;;;;;;11.04;55.03;95510.41;5044608;28;20546;-74
2023/05/13 04:23:38;;;;;;;5.55;4.75;;;;;;;11.04;54.86;95496.66;5042913;28;20033;-72
2023/05/13 04:26:04;;;;;;;6.07;5.00;;;;;;;11.07;54.85;95511.56;5045567;28;20020;-74
2023/05/13 04:28:30;;;;;;;6.10;4.28;;;;;;;11.09;54.54;95515.41;5043736;28;20025;-74
2023/05/13 04:30:55;;;;;;;6.53;5.10;;;;;;;11.13;54.29;95520.84;5045573;28;20029;-73
2023/05/13 04:33:21;;;;;;;6.50;4.63;;;;;;;11.13;54.02;95507.09;5046005;28;20028;-73
2023/05/13 04:35:46;;;;;;;5.40;4.20;;;;;;;11.26;53.38;95529.22;5044526;28;20025;-73
2023/05/13 04:38:11;;;;;;;5.13;3.58;;;;;;;11.30;52.13;95522.44;5046079;28;20577;-73
2023/05/13 04:40:37;;;;;;;5.60;3.42;;;;;;;11.35;51.17;95530.16;5044266;28;20099;-73
2023/05/13 04:43:02;;;;;;;4.95;3.55;;;;;;;11.39;50.88;95519.09;5044505;28;20025;-73
2023/05/13 04:45:29;;;;;;;6.88;3.20;;;;;;;11.45;50.70;95517.38;5044549;28;20040;-73
2023/05/13 04:47:54;;;;;;;6.25;3.95;;;;;;;11.51;51.20;95520.41;5044278;28;20124;-72
2023/05/13 04:50:20;;;;;;;8.35;4.13;;;;;;;11.50;51.39;95522.38;5046507;28;20550;-72
2023/05/13 04:52:46;;;;;;;5.97;4.68;;;;;;;11.53;51.76;95518.00;5045979;28;20036;-74
2023/05/13 04:55:11;;;;;;;7.43;4.25;;;;;;;11.54;52.04;95517.56;5045809;28;20096;-74
2023/05/13 04:57:37;;;;;;;6.45;4.40;;;;;;;11.48;51.69;95516.53;5026426;28;20140;-74
2023/05/13 05:00:03;;;;;;;4.82;4.28;;;;;;;11.55;51.55;95521.09;5044582;28;20534;-74
2023/05/13 05:02:28;;;;;;;8.38;4.80;;;;;;;11.60;51.54;95509.56;5044180;28;20041;-72
2023/05/13 05:04:55;;;;;;;6.35;4.28;;;;;;;11.67;51.24;95512.16;5043857;28;20174;-73
2023/05/13 05:07:20;;;;;;;7.85;4.30;;;;;;;11.72;51.03;95508.88;5043236;28;20029;-73
2023/05/13 05:09:46;;;;;;;4.28;3.60;;;;;;;11.77;50.26;95508.38;5044527;28;20099;-73
2023/05/13 05:12:11;;;;;;;4.78;4.05;;;;;;;11.84;50.13;95522.00;5026937;28;20125;-74
2023/05/13 05:14:37;;;;;;;6.05;3.90;;;;;;;11.89;50.50;95523.47;5044253;28;20059;-74
2023/05/13 05:17:02;;;;;;;6.75;4.97;;;;;;;11.88;50.73;95517.19;5045668;28;20054;-74
2023/05/13 05:19:27;;;;;;;5.88;4.13;;;;;;;11.94;50.75;95522.94;5042588;28;20021;-74
2023/05/13 05:21:53;;;;;;;9.40;4.95;;;;;;;12.04;50.08;95521.88;5043569;28;20407;-73
2023/05/13 05:24:19;;;;;;;6.75;4.88;;;;;;;12.14;49.65;95520.06;5042287;28;20036;-74
2023/05/13 05:26:44;;;;;;;10.73;5.05;;;;;;;12.16;50.15;95523.97;5026581;28;20057;-74
2023/05/13 05:29:09;;;;;;;8.93;4.97;;;;;;;12.15;50.56;95525.13;5044593;28;20456;-75
2023/05/13 05:31:35;;;;;;;7.13;4.35;;;;;;;12.26;50.09;95521.34;5044571;28;20143;-73
2023/05/13 05:34:00;;;;;;;6.40;4.13;;;;;;;12.33;49.75;95523.91;5043804;28;20076;-73
2023/05/13 05:36:27;;;;;;;9.70;4.40;;;;;;;12.41;49.75;95509.50;5043971;28;20036;-73
2023/05/13 05:38:53;;;;;;;4.72;3.40;;;;;;;12.47;49.48;95521.56;5043912;28;20021;-73
2023/05/13 05:41:18;;;;;;;5.07;3.83;;;;;;;12.54;48.86;95528.09;5042434;28;20585;-73
2023/05/13 05:43:43;;;;;;;7.53;3.35;;;;;;;12.61;48.64;95531.41;5026710;28;20047;-74
2023/05/13 05:46:09;;;;;;;6.32;3.80;;;;;;;12.66;48.31;95532.88;5045208;28;20542;-73
2023/05/13 05:48:35;;;;;;;4.45;3.47;;;;;;;12.66;48.28;95535.63;5047553;28;20029;-73
2023/05/13 05:51:00;;;;;;;6.60;3.60;;;;;;;12.64;47.94;95536.06;5043243;28;20063;-75
2023/05/13 05:53:26;;;;;;;5.88;3.67;;;;;;;12.72;48.08;95529.13;5043007;28;20071;-73
2023/05/13 05:55:51;;;;;;;5.70;3.22;;;;;;;12.78;47.75;95545.94;5045165;28;20471;-74
2023/05/13 05:58:16;;;;;;;8.48;4.40;;;;;;;12.65;47.84;95540.38;5043485;28;20033;-73
2023/05/13 06:00:42;;;;;;;6.70;4.35;;;;;;;12.55;47.59;95535.91;5045086;28;20051;-74
2023/05/13 06:03:07;;;;;;;7.57;3.50;;;;;;;12.63;47.67;95537.28;5041785;28;20045;-72
2023/05/13 06:05:34;;;;;;;6.30;4.00;;;;;;;12.69;47.37;95540.28;5044823;28;20448;-72
2023/05/13 06:07:59;;;;;;;5.05;3.35;;;;;;;12.72;47.21;95537.41;5043769;28;20088;-72
2023/05/13 06:10:25;;;;;;;5.82;3.97;;;;;;;12.77;46.21;95536.88;5042934;28;20171;-72
2023/05/13 06:12:50;;;;;;;6.22;3.70;;;;;;;12.86;46.33;95533.50;5043256;28;20108;-72
2023/05/13 06:15:15;;;;;;;6.47;4.00;;;;;;;12.83;46.50;95539.88;5042711;28;20025;-72
2023/05/13 06:17:41;;;;;;;7.95;4.10;;;;;;;12.85;46.21;95547.75;5045064;28;20029;-73
2023/05/13 06:20:06;;;;;;;6.20;4.50;;;;;;;12.85;46.47;95540.25;5043413;28;20139;-73
2023/05/13 06:22:32;;;;;;;7.72;4.25;;;;;;;12.78;46.60;95543.19;5046957;28;20024;-74
2023/05/13 06:24:58;;;;;;;9.60;5.88;;;;;;;12.77;46.88;95542.41;5045453;28;20460;-73
2023/05/13 06:27:24;;;;;;;11.95;6.40;;;;;;;12.76;46.59;95540.88;5047020;28;20546;-74
2023/05/13 06:29:50;;;;;;;9.73;5.55;;;;;;;12.87;46.25;95543.31;5047810;28;20573;-73
2023/05/13 06:32:16;;;;;;;8.93;5.78;;;;;;;12.88;46.43;95547.63;5046125;28;20048;-73
2023/05/13 06:34:45;;;;;;;11.70;5.13;;;;;;;12.97;46.68;95555.28;5030721;28;20067;-73
2023/05/13 06:37:14;;;;;;;7.32;4.55;;;;;;;13.03;46.43;95548.78;5045594;28;20025;-72
2023/05/13 06:39:39;;;;;;;8.13;4.10;;;;;;;13.10;46.10;95547.81;5048566;28;20074;-73
2023/05/13 06:42:05;;;;;;;7.18;4.15;;;;;;;13.13;45.81;95555.22;5048936;28;20032;-72
2023/05/13 06:44:30;;;;;;;6.60;3.92;;;;;;;13.17;45.62;95544.06;5049505;28;20146;-75
2023/05/13 06:46:56;;;;;;;9.18;4.20;;;;;;;13.28;44.40;95542.56;5045788;28;20029;-74
2023/05/13 06:49:23;;;;;;;5.50;3.50;;;;;;;13.37;44.07;95547.44;5047774;28;20036;-76
2023/05/13 06:51:49;;;;;;;5.30;3.50;;;;;;;13.39;43.03;95547.75;5047935;28;20032;-72
2023/05/13 06:54:15;;;;;;;8.00;3.58;;;;;;;13.41;42.15;95550.84;5046557;28;20028;-73
2023/05/13 06:56:40;;;;;;;22.48;16.90;;;;;;;13.34;42.05;95545.53;5048258;28;20028;-75
2023/05/13 06:59:06;;;;;;;13.88;9.20;;;;;;;13.51;42.40;95540.69;5046226;28;20106;-74
2023/05/13 07:01:31;;;;;;;72.82;45.22;;;;;;;13.58;42.40;95543.25;5048237;28;20407;-73
2023/05/13 07:03:56;;;;;;;21.85;15.93;;;;;;;13.68;42.54;95552.41;5046429;28;20041;-76
2023/05/13 07:06:22;;;;;;;57.75;43.42;;;;;;;13.88;42.68;95552.19;5047421;28;20029;-74
2023/05/13 07:08:47;;;;;;;32.83;23.67;;;;;;;13.99;41.67;95549.84;5045813;28;20033;-75
2023/05/13 07:11:13;;;;;;;23.67;17.40;;;;;;;14.08;41.32;95552.72;5045267;28;20074;-76
2023/05/13 07:13:38;;;;;;;15.52;9.63;;;;;;;14.24;41.01;95562.88;5047782;28;20402;-75
2023/05/13 07:16:03;;;;;;;5.63;3.42;;;;;;;14.31;41.98;95566.16;5028247;28;20174;-75
2023/05/13 07:18:29;;;;;;;6.78;3.13;;;;;;;14.53;42.31;95562.72;5046224;28;20053;-75
2023/05/13 07:20:58;;;;;;;5.90;3.53;;;;;;;14.70;40.73;95566.09;5044790;28;20601;-75
2023/05/13 07:23:23;;;;;;;88.05;70.32;;;;;;;14.90;41.31;95576.84;5045219;28;20021;-77
2023/05/13 07:25:50;;;;;;;24.40;19.65;;;;;;;15.04;40.44;95576.34;5044717;28;20095;-78
2023/05/13 07:28:17;;;;;;;22.65;19.92;;;;;;;15.24;40.88;95570.47;5044948;28;20039;-75
2023/05/13 07:30:42;;;;;;;8.75;6.35;;;;;;;15.38;40.85;95569.97;5047110;28;20032;-77
2023/05/13 07:33:07;;;;;;;7.13;4.97;;;;;;;15.57;39.60;95565.28;5044896;28;20025;-77
2023/05/13 07:35:33;;;;;;;6.65;5.15;;;;;;;15.74;40.09;95563.09;5047070;28;20039;-74
2023/05/13 07:37:58;;;;;;;6.32;4.63;;;;;;;15.98;39.75;95557.78;5049007;28;20645;-74
2023/05/13 07:40:23;;;;;;;5.75;4.30;;;;;;;16.22;39.37;95560.78;5046714;28;20427;-75
2023/05/13 07:42:49;;;;;;;7.35;4.43;;;;;;;16.43;38.24;95559.91;5044283;28;20029;-74
2023/05/13 07:45:14;;;;;;;6.35;3.35;;;;;;;16.47;37.89;95560.53;5045041;28;20036;-75
2023/05/13 07:47:40;;;;;;;4.82;3.40;;;;;;;16.18;37.69;95560.94;5046236;28;20032;-77
2023/05/13 07:50:06;;;;;;;6.65;4.13;;;;;;;16.28;38.16;95562.47;5046269;28;20490;-75
2023/05/13 07:52:31;;;;;;;8.88;4.00;;;;;;;16.47;38.27;95554.97;5028666;28;20444;-76
2023/05/13 07:54:57;;;;;;;5.07;3.65;;;;;;;16.75;37.69;95572.47;5045394;28;20530;-76
2023/05/13 07:57:23;;;;;;;5.32;4.00;;;;;;;16.79;37.88;95573.06;5045098;28;20112;-76
2023/05/13 07:59:48;;;;;;;11.00;3.70;;;;;;;16.45;37.44;95569.28;5045730;28;20466;-76
2023/05/13 08:02:20;;;;;;;5.65;3.35;;;;;;;16.70;37.16;95565.50;5046329;28;20033;-77
2023/05/13 08:04:46;;;;;;;6.40;3.70;;;;;;;16.90;36.81;95559.47;5045666;28;20033;-77
2023/05/13 08:07:11;;;;;;;5.25;3.63;;;;;;;17.08;36.09;95558.69;5044949;28;20075;-77
2023/05/13 08:09:37;;;;;;;6.43;3.88;;;;;;;17.14;36.68;95551.28;5046352;28;20029;-77
2023/05/13 08:12:02;;;;;;;5.00;3.42;;;;;;;17.21;37.06;95555.78;5027292;28;20411;-76
2023/05/13 08:14:28;;;;;;;8.63;3.63;;;;;;;17.33;37.38;95556.84;5044981;28;20025;-76
2023/05/13 08:16:53;;;;;;;5.20;3.30;;;;;;;17.42;37.10;95556.78;5045088;28;20058;-77
2023/05/13 08:19:19;;;;;;;6.50;3.88;;;;;;;17.44;36.70;95546.00;5044940;28;20101;-78
2023/05/13 08:21:44;;;;;;;5.28;3.55;;;;;;;17.35;36.80;95546.78;5027525;28;20037;-77
2023/05/13 08:24:10;;;;;;;7.70;4.07;;;;;;;17.31;37.50;95546.16;5027700;28;20238;-76
2023/05/13 08:26:36;;;;;;;6.88;3.90;;;;;;;17.41;37.96;95542.13;5043772;28;20070;-78
2023/05/13 08:29:01;;;;;;;7.95;3.67;;;;;;;17.57;37.48;95548.59;5045133;28;20503;-78
2023/05/13 08:31:27;;;;;;;4.43;3.53;;;;;;;17.61;37.28;95549.19;5046430;28;20511;-82
2023/05/13 08:33:53;;;;;;;7.88;3.97;;;;;;;17.54;37.39;95547.50;5061007;28;20043;-82
2023/05/13 08:36:19;;;;;;;7.65;4.00;;;;;;;17.78;37.01;95537.25;5047348;28;20039;-86
2023/05/13 08:38:44;;;;;;;5.38;3.97;;;;;;;17.81;36.60;95538.31;5027845;28;20021;-82
2023/05/13 08:41:14;;;;;;;7.82;4.57;;;;;;;17.89;38.02;95535.97;5046926;28;20040;-83
2023/05/13 08:43:39;;;;;;;6.25;4.28;;;;;;;18.01;38.23;95541.34;5028036;28;20255;-82
2023/05/13 08:46:08;;;;;;;6.78;4.05;;;;;;;18.17;37.84;95537.38;5044967;28;20671;-83
2023/05/13 08:48:34;;;;;;;6.60;4.63;;;;;;;18.24;37.51;95534.25;5028990;28;20033;-84
2023/05/13 08:51:01;;;;;;;7.03;4.32;;;;;;;18.48;36.84;95530.69;5044856;28;20098;-82
2023/05/13 08:53:26;;;;;;;6.38;4.30;;;;;;;18.54;36.73;95532.34;5044908;28;20025;-79
2023/05/13 08:55:52;;;;;;;9.52;5.22;;;;;;;18.63;37.20;95519.59;5043255;28;20071;-80
2023/05/13 08:58:17;;;;;;;7.70;4.53;;;;;;;18.79;38.17;95522.75;5045422;28;20107;-79
2023/05/13 09:00:43;;;;;;;7.15;5.22;;;;;;;18.91;37.76;95514.59;5026291;28;20079;-79
2023/05/13 09:03:08;;;;;;;7.55;4.57;;;;;;;18.86;36.96;95504.13;5043860;28;20063;-80
2023/05/13 09:05:35;;;;;;;9.88;4.25;;;;;;;19.09;37.07;95503.28;5025718;28;20083;-80
2023/05/13 09:08:06;;;;;;;8.90;4.55;;;;;;;19.30;36.82;95510.50;5044930;28;20049;-74
2023/05/13 09:10:33;;;;;;;6.57;4.50;;;;;;;19.48;36.49;95497.63;5045382;28;20079;-80
2023/05/13 09:13:00;;;;;;;7.65;5.03;;;;;;;19.49;36.30;95510.31;5045414;28;20113;-78
2023/05/13 09:15:26;;;;;;;6.63;5.00;;;;;;;19.42;36.67;95499.56;5044568;28;20488;-79
2023/05/13 09:18:01;;;;;;;8.43;5.53;;;;;;;19.18;37.29;95505.22;5043431;28;20021;-76
2023/05/13 09:20:27;;;;;;;9.50;5.32;;;;;;;19.27;37.47;95511.47;5043098;28;20124;-75
2023/05/13 09:22:59;;;;;;;9.32;4.93;;;;;;;19.67;37.59;95506.56;5044567;28;20112;-75
2023/05/13 09:25:26;;;;;;;8.82;5.80;;;;;;;19.98;37.65;95506.03;5027150;28;20128;-77
2023/05/13 09:27:56;;;;;;;9.05;6.10;;;;;;;20.31;38.03;95509.31;5029195;28;20534;-75
2023/05/13 09:30:24;;;;;;;7.25;5.78;;;;;;;20.54;38.17;95501.25;5050439;28;20039;-76
2023/05/13 09:33:10;;;;;;;11.77;5.85;;;;;;;20.90;37.87;95509.03;5045469;28;20492;-76
2023/05/13 09:35:37;;;;;;;9.32;5.85;;;;;;;21.00;37.45;95506.09;5044190;28;20033;-75
2023/05/13 09:38:20;;;;;;;7.35;5.43;;;;;;;21.30;36.13;95501.84;5043556;28;20025;-77
2023/05/13 09:40:50;;;;;;;7.97;6.88;;;;;;;21.29;36.77;95491.13;5027130;28;20025;-75
2023/05/13 09:43:17;;;;;;;7.80;6.35;;;;;;;21.39;36.63;95496.09;5043764;28;20017;-75
2023/05/13 09:45:43;;;;;;;8.95;6.63;;;;;;;21.44;36.68;95495.34;5044926;28;20035;-76
2023/05/13 09:48:10;;;;;;;8.52;6.30;;;;;;;21.59;36.58;95488.88;5042184;28;20025;-76
2023/05/13 09:50:48;;;;;;;7.95;6.40;;;;;;;21.76;36.36;95478.56;5026462;28;20032;-78
2023/05/13 09:53:14;;;;;;;9.40;6.68;;;;;;;21.82;35.50;95489.81;5026663;28;20029;-78
2023/05/13 09:55:47;;;;;;;8.20;6.47;;;;;;;21.66;35.14;95486.38;5025687;28;20385;-77
2023/05/13 09:58:12;;;;;;;8.60;6.90;;;;;;;21.80;35.64;95479.13;5047535;28;20071;-77
2023/05/13 10:00:42;;;;;;;8.43;6.47;;;;;;;21.97;35.17;95480.00;5046088;28;20053;-78
2023/05/13 10:03:09;;;;;;;11.55;6.15;;;;;;;22.14;35.19;95485.72;5047925;28;20041;-78
2023/05/13 10:05:34;;;;;;;7.35;5.88;;;;;;;22.32;34.42;95483.78;5029585;28;20120;-78
2023/05/13 10:08:01;;;;;;;11.18;5.75;;;;;;;22.34;34.51;95478.44;5046761;28;20108;-78
2023/05/13 10:10:31;;;;;;;10.23;6.60;;;;;;;22.47;34.54;95487.91;5047019;28;20025;-78
2023/05/13 10:13:07;;;;;;;8.30;6.45;;;;;;;22.70;34.04;95490.81;5047296;28;20498;-78
2023/05/13 10:15:45;;;;;;;10.18;6.72;;;;;;;22.89;33.85;95485.56;5030597;28;20021;-78
2023/05/13 10:18:10;;;;;;;7.32;6.40;;;;;;;22.99;33.84;95490.41;5047703;28;20048;-75
2023/05/13 10:20:36;;;;;;;8.73;5.43;;;;;;;23.22;33.50;95487.66;5046698;28;20053;-77
2023/05/13 10:23:03;;;;;;;6.78;5.70;;;;;;;23.33;33.98;95477.22;5051221;28;20025;-76
2023/05/13 10:25:28;;;;;;;10.15;5.55;;;;;;;23.57;33.37;95476.75;5049227;28;20052;-75
2023/05/13 10:27:54;;;;;;;6.50;5.55;;;;;;;23.83;32.74;95473.69;5029554;28;20072;-77
2023/05/13 10:30:25;;;;;;;7.45;5.88;;;;;;;24.05;32.29;95470.09;5045835;28;20119;-76
2023/05/13 10:32:50;;;;;;;8.73;6.22;;;;;;;24.12;31.82;95468.81;5047064;28;20424;-77
2023/05/13 10:35:17;;;;;;;12.35;5.10;;;;;;;24.28;31.92;95467.22;5029056;28;20155;-77
2023/05/13 10:38:01;;;;;;;13.85;5.32;;;;;;;24.23;32.31;95468.00;5047057;28;20017;-78
2023/05/13 10:41:01;;;;;;;9.10;6.65;;;;;;;24.31;31.69;95464.16;5045887;28;20033;-78
2023/05/13 10:43:28;;;;;;;7.15;6.13;;;;;;;24.34;31.54;95474.38;5047099;28;20576;-75
2023/05/13 10:46:13;;;;;;;7.95;5.40;;;;;;;24.21;31.63;95465.72;5046313;28;20025;-76
2023/05/13 10:48:46;;;;;;;11.68;6.85;;;;;;;24.24;31.71;95467.50;5045428;28;20040;-77
2023/05/13 10:51:18;;;;;;;9.77;6.25;;;;;;;24.45;31.48;95470.03;5046497;28;20024;-76
2023/05/13 10:53:53;;;;;;;8.32;5.53;;;;;;;24.70;31.31;95468.88;5045666;28;20029;-75
2023/05/13 10:56:21;;;;;;;9.00;6.78;;;;;;;24.66;31.03;95471.22;5045720;28;20021;-76
2023/05/13 10:58:58;;;;;;;10.82;6.95;;;;;;;24.54;30.56;95467.66;5047611;28;20112;-75
2023/05/13 11:01:42;;;;;;;10.43;5.80;;;;;;;24.64;30.52;95473.78;5044867;28;20025;-76
2023/05/13 11:04:13;;;;;;;6.43;5.03;;;;;;;24.79;30.71;95470.66;5045818;28;20116;-75
2023/05/13 11:06:43;;;;;;;6.95;5.40;;;;;;;25.01;30.84;95473.34;5045599;28;20017;-77
2023/05/13 11:09:14;;;;;;;6.88;5.15;;;;;;;25.15;30.02;95471.50;5028640;28;20455;-77
2023/05/13 11:11:40;;;;;;;6.13;5.10;;;;;;;25.20;29.93;95465.06;5029958;28;20120;-77
2023/05/13 11:14:22;;;;;;;7.63;5.63;;;;;;;24.87;29.77;95461.13;5027988;28;20041;-76
2023/05/13 11:17:09;;;;;;;6.50;5.22;;;;;;;24.85;29.60;95451.69;5046928;28;20079;-76
2023/05/13 11:19:45;;;;;;;6.32;5.60;;;;;;;24.89;30.05;95455.78;5052484;28;20029;-77
2023/05/13 11:22:13;;;;;;;10.75;5.75;;;;;;;24.84;30.07;95455.81;5045655;28;20027;-75
2023/05/13 11:24:39;;;;;;;7.72;5.30;;;;;;;24.59;30.28;95441.59;5049740;28;20083;-75
2023/05/13 11:27:18;;;;;;;8.27;5.88;;;;;;;24.58;30.16;95442.13;5027754;28;20040;-77
2023/05/13 11:29:52;;;;;;;8.90;5.45;;;;;;;24.59;30.77;95433.16;5046122;28;20476;-76
2023/05/13 11:32:55;;;;;;;7.22;5.57;;;;;;;24.72;30.40;95437.47;5044789;28;20108;-75
2023/05/13 11:35:22;;;;;;;5.97;5.32;;;;;;;24.82;30.05;95433.06;5045131;28;20079;-75